createdAt,value
2022-11-29T00:01:34.598Z,102333.84
2022-11-29T00:04:02.733Z,102334.69
2022-11-29T00:06:33.367Z,102327.00
2022-11-29T00:09:04.452Z,102327.00
2022-11-29T00:11:54.068Z,102331.25
2022-11-29T00:14:22.280Z,102328.72
2022-11-29T00:16:54.898Z,102336.38
2022-11-29T00:19:22.326Z,102328.69
2022-11-29T00:21:49.199Z,102325.28
2022-11-29T00:24:16.417Z,102316.72
2022-11-29T00:26:43.330Z,102317.59
2022-11-29T00:29:12.619Z,102313.31
2022-11-29T00:31:40.725Z,102301.38
2022-11-29T00:34:09.737Z,102310.78
2022-11-29T00:36:36.982Z,102298.81
2022-11-29T00:39:05.194Z,102313.31
2022-11-29T00:41:32.297Z,102318.47
2022-11-29T00:43:59.396Z,102314.19
2022-11-29T00:46:26.421Z,102317.59
2022-11-29T00:48:53.411Z,102309.91
2022-11-29T00:51:20.342Z,102300.53
2022-11-29T00:53:47.341Z,102314.19
2022-11-29T00:56:14.342Z,102309.03
2022-11-29T00:58:43.621Z,102308.22
2022-11-29T01:01:11.845Z,102307.38
2022-11-29T01:03:39.304Z,102309.06
2022-11-29T01:06:12.898Z,102293.69
2022-11-29T01:08:40.023Z,102310.78
2022-11-29T01:11:06.934Z,102302.25
2022-11-29T01:13:35.091Z,102300.53
2022-11-29T01:16:02.079Z,102310.78
2022-11-29T01:18:30.628Z,102302.22
2022-11-29T01:20:59.543Z,102307.38
2022-11-29T01:23:27.445Z,102306.47
2022-11-29T01:26:18.936Z,102309.03
2022-11-29T01:28:47.455Z,102302.22
2022-11-29T01:31:17.794Z,102300.47
2022-11-29T01:33:44.776Z,102300.53
2022-11-29T01:36:13.743Z,102306.47
2022-11-29T01:38:42.489Z,102301.38
2022-11-29T01:41:13.711Z,102301.38
2022-11-29T01:44:01.596Z,102309.03
2022-11-29T01:46:31.871Z,102299.66
2022-11-29T01:49:28.007Z,102306.47
2022-11-29T01:52:30.109Z,102299.59
2022-11-29T01:55:00.697Z,102306.50
2022-11-29T01:57:28.510Z,102309.03
2022-11-29T02:00:01.110Z,102305.59
2022-11-29T02:02:50.868Z,102309.03
2022-11-29T02:05:19.677Z,102308.16
2022-11-29T02:07:51.158Z,102286.84
2022-11-29T02:10:18.626Z,102317.59
2022-11-29T02:13:09.040Z,102305.66
2022-11-29T02:15:42.979Z,102315.03
2022-11-29T02:18:27.434Z,102313.28
2022-11-29T02:21:19.988Z,102320.16
2022-11-29T02:24:24.569Z,102313.31
2022-11-29T02:27:13.366Z,102315.03
2022-11-29T02:29:58.749Z,102319.31
2022-11-29T02:32:50.299Z,102312.50
2022-11-29T02:35:19.759Z,102321.84
2022-11-29T02:38:11.682Z,102317.63
2022-11-29T02:40:38.653Z,102313.34
2022-11-29T02:43:11.611Z,102327.84
2022-11-29T02:45:58.729Z,102320.19
2022-11-29T02:48:44.271Z,102318.41
2022-11-29T02:51:42.023Z,102319.28
2022-11-29T02:54:24.130Z,102315.88
2022-11-29T02:57:04.501Z,102315.03
2022-11-29T02:59:43.325Z,102315.88
2022-11-29T03:02:25.455Z,102314.16
2022-11-29T03:05:14.005Z,102321.00
2022-11-29T03:08:13.366Z,102324.41
2022-11-29T03:11:05.333Z,102321.00
2022-11-29T03:13:50.557Z,102319.28
2022-11-29T03:16:41.325Z,102327.00
2022-11-29T03:19:39.135Z,102326.97
2022-11-29T03:22:34.072Z,102273.94
2022-11-29T03:25:08.124Z,102323.53
2022-11-29T03:27:43.750Z,102324.38
2022-11-29T03:30:14.052Z,102327.81
2022-11-29T03:32:59.119Z,102324.38
2022-11-29T03:35:37.777Z,102325.19
2022-11-29T03:38:27.492Z,102332.78
2022-11-29T03:41:13.115Z,102333.63
2022-11-29T03:44:09.676Z,102332.75
2022-11-29T03:46:56.851Z,102317.41
2022-11-29T03:49:30.599Z,102331.94
2022-11-29T03:52:17.335Z,102333.66
2022-11-29T03:55:05.965Z,102340.50
2022-11-29T03:58:11.369Z,102337.94
2022-11-29T04:01:00.452Z,102345.53
2022-11-29T04:04:06.134Z,102345.56
2022-11-29T04:07:00.979Z,102347.22
2022-11-29T04:09:39.783Z,102348.06
2022-11-29T04:12:06.619Z,102350.63
2022-11-29T04:15:15.225Z,102353.19
2022-11-29T04:18:07.133Z,102354.06
2022-11-29T04:20:53.704Z,102366.00
2022-11-29T04:23:45.968Z,102354.06
2022-11-29T04:26:35.175Z,102359.16
2022-11-29T04:29:23.803Z,102356.56
2022-11-29T04:32:03.442Z,102355.81
2022-11-29T04:34:45.520Z,102354.06
2022-11-29T04:37:39.979Z,102349.88
2022-11-29T04:40:44.196Z,102358.34
2022-11-29T04:43:35.115Z,102354.03
2022-11-29T04:46:34.192Z,102365.13
2022-11-29T04:49:23.217Z,102364.19
2022-11-29T04:52:13.964Z,102367.53
2022-11-29T04:54:44.025Z,102371.81
2022-11-29T04:57:32.680Z,102376.97
2022-11-29T05:00:18.686Z,102384.56
2022-11-29T05:02:55.031Z,102379.41
2022-11-29T05:05:51.137Z,102392.34
2022-11-29T05:08:21.305Z,102405.94
2022-11-29T05:11:26.996Z,102397.41
2022-11-29T05:14:08.971Z,102402.63
2022-11-29T05:17:04.616Z,102407.63
2022-11-29T05:19:56.548Z,102412.84
2022-11-29T05:22:38.329Z,102403.53
2022-11-29T05:25:28.803Z,102410.25
2022-11-29T05:28:10.424Z,102403.31
2022-11-29T05:31:14.549Z,102415.13
2022-11-29T05:34:13.559Z,102414.41
2022-11-29T05:36:55.444Z,102414.38
2022-11-29T05:39:50.804Z,102367.31
2022-11-29T05:42:34.938Z,102407.69
2022-11-29T05:45:17.168Z,102411.81
2022-11-29T05:47:56.272Z,102416.88
2022-11-29T05:50:30.896Z,102415.28
2022-11-29T05:53:26.043Z,102426.41
2022-11-29T05:56:25.401Z,102427.81
2022-11-29T05:59:05.657Z,102426.25
2022-11-29T06:01:46.532Z,102426.13
2022-11-29T06:04:23.089Z,102427.00
2022-11-29T06:06:59.956Z,102428.72
2022-11-29T06:09:33.776Z,102431.31
2022-11-29T06:12:14.898Z,102433.94
2022-11-29T06:15:03.833Z,102430.41
2022-11-29T06:18:02.190Z,102430.56
2022-11-29T06:20:57.242Z,102422.88
2022-11-29T06:23:44.463Z,102439.72
2022-11-29T06:26:11.255Z,102436.34
2022-11-29T06:29:02.542Z,102440.81
2022-11-29T06:31:46.596Z,102438.31
2022-11-29T06:34:37.880Z,102440.88
2022-11-29T06:37:17.374Z,102448.63
2022-11-29T06:39:44.568Z,102454.66
2022-11-29T06:42:11.457Z,102462.28
2022-11-29T06:44:38.591Z,102453.78
2022-11-29T06:47:09.402Z,102445.91
2022-11-29T06:49:41.916Z,102461.31
2022-11-29T06:52:35.484Z,102465.63
2022-11-29T06:55:26.254Z,102456.41
2022-11-29T06:58:08.074Z,102459.84
2022-11-29T07:00:38.610Z,102458.25
2022-11-29T07:03:28.845Z,102452.28
2022-11-29T07:05:57.215Z,102455.66
2022-11-29T07:08:25.454Z,102464.22
2022-11-29T07:10:55.703Z,102465.09
2022-11-29T07:13:23.296Z,102464.13
2022-11-29T07:16:02.375Z,102458.09
2022-11-29T07:18:43.491Z,102464.13
2022-11-29T07:21:47.131Z,102463.31
2022-11-29T07:24:16.616Z,102462.50
2022-11-29T07:27:06.354Z,102464.19
2022-11-29T07:30:02.704Z,102469.41
2022-11-29T07:33:00.302Z,102467.59
2022-11-29T07:36:00.538Z,102479.66
2022-11-29T07:38:53.901Z,102472.66
2022-11-29T07:41:56.140Z,102474.38
2022-11-29T07:44:45.495Z,102461.59
2022-11-29T07:47:13.442Z,102468.50
2022-11-29T07:49:40.513Z,102471.09
2022-11-29T07:52:10.013Z,102470.09
2022-11-29T07:54:36.913Z,102469.16
2022-11-29T07:57:03.899Z,102464.97
2022-11-29T07:59:30.829Z,102481.16
2022-11-29T08:01:58.952Z,102481.94
2022-11-29T08:04:25.966Z,102476.91
2022-11-29T08:06:52.906Z,102484.41
2022-11-29T08:09:20.117Z,102467.34
2022-11-29T08:11:48.945Z,102479.44
2022-11-29T08:14:15.885Z,102475.22
2022-11-29T08:16:42.917Z,102484.53
2022-11-29T08:19:09.862Z,102483.72
2022-11-29T08:21:36.737Z,102482.94
2022-11-29T08:24:03.739Z,102477.78
2022-11-29T08:26:31.883Z,102482.03
2022-11-29T08:28:59.021Z,102485.22
2022-11-29T08:31:26.026Z,102484.59
2022-11-29T08:33:53.017Z,102482.97
2022-11-29T08:36:20.872Z,102474.53
2022-11-29T08:38:48.116Z,102484.84
2022-11-29T08:41:16.927Z,102476.34
2022-11-29T08:43:44.410Z,102470.28
2022-11-29T08:46:17.977Z,102474.56
2022-11-29T08:48:46.582Z,102468.59
2022-11-29T08:51:13.844Z,102468.56
2022-11-29T08:53:46.139Z,102480.59
2022-11-29T08:57:04.457Z,102476.31
2022-11-29T08:59:05.753Z,102460.91
2022-11-29T09:01:32.947Z,102484.84
2022-11-29T09:03:59.944Z,102483.16
2022-11-29T09:06:28.849Z,102484.94
2022-11-29T09:08:56.889Z,102482.34
2022-11-29T09:11:26.016Z,102488.34
2022-11-29T09:13:56.006Z,102474.63
2022-11-29T09:16:25.905Z,102484.88
2022-11-29T09:18:55.871Z,102473.00
2022-11-29T09:21:24.788Z,102484.19
2022-11-29T09:23:58.822Z,102475.63
2022-11-29T09:26:31.933Z,102482.50
2022-11-29T09:29:01.396Z,102483.34
2022-11-29T09:31:30.441Z,102476.53
2022-11-29T09:33:57.828Z,102479.09
2022-11-29T09:36:28.490Z,102471.44
2022-11-29T09:38:57.644Z,102456.88
2022-11-29T09:41:42.996Z,102473.09
2022-11-29T09:44:22.656Z,102469.56
2022-11-29T09:47:02.968Z,102472.22
2022-11-29T09:49:39.032Z,102466.25
2022-11-29T09:52:14.710Z,102469.72
2022-11-29T09:54:53.521Z,102464.59
2022-11-29T09:57:21.969Z,102473.13
2022-11-29T09:59:54.733Z,102465.44
2022-11-29T10:02:38.298Z,102461.91
2022-11-29T10:05:24.292Z,102461.94
2022-11-29T10:07:55.511Z,102459.22
2022-11-29T10:10:32.406Z,102461.09
2022-11-29T10:13:16.059Z,102436.34
2022-11-29T10:15:50.659Z,102454.31
2022-11-29T10:18:44.404Z,102447.38
2022-11-29T10:21:17.408Z,102442.28
2022-11-29T10:23:56.514Z,102453.38
2022-11-29T10:26:25.877Z,102452.50
2022-11-29T10:28:57.726Z,102450.75
2022-11-29T10:31:29.395Z,102453.28
2022-11-29T10:34:00.020Z,102451.59
2022-11-29T10:36:33.437Z,102456.69
2022-11-29T10:39:13.007Z,102454.13
2022-11-29T10:41:41.215Z,102450.59
2022-11-29T10:44:13.420Z,102464.34
2022-11-29T10:46:41.283Z,102438.63
2022-11-29T10:49:17.526Z,102461.78
2022-11-29T10:51:46.038Z,102455.84
2022-11-29T10:54:31.759Z,102455.88
2022-11-29T10:57:00.753Z,102458.44
2022-11-29T10:59:29.897Z,102458.50
2022-11-29T11:01:58.012Z,102454.22
2022-11-29T11:04:27.143Z,102455.75
2022-11-29T11:07:01.307Z,102460.84
2022-11-29T11:09:34.377Z,102455.69
2022-11-29T11:12:08.591Z,102454.03
2022-11-29T11:14:38.732Z,102445.53
2022-11-29T11:17:22.633Z,102444.72
2022-11-29T11:20:05.858Z,102451.66
2022-11-29T11:22:34.065Z,102449.94
2022-11-29T11:25:07.711Z,102450.75
2022-11-29T11:27:41.995Z,102458.47
2022-11-29T11:30:22.999Z,102452.44
2022-11-29T11:33:20.405Z,102451.59
2022-11-29T11:36:06.437Z,102452.50
2022-11-29T11:38:38.662Z,102443.16
2022-11-29T11:41:12.878Z,102452.53
2022-11-29T11:43:40.081Z,102454.25
2022-11-29T11:46:08.302Z,102461.94
2022-11-29T11:48:35.884Z,102456.69
2022-11-29T11:51:03.271Z,102446.31
2022-11-29T11:53:36.738Z,102456.56
2022-11-29T11:56:10.503Z,102457.44
2022-11-29T11:58:43.646Z,102457.38
2022-11-29T12:01:13.475Z,102459.94
2022-11-29T12:04:20.497Z,102465.09
2022-11-29T12:06:59.430Z,102468.47
2022-11-29T12:09:48.025Z,102462.47
2022-11-29T12:12:26.188Z,102465.78
2022-11-29T12:15:07.118Z,102463.06
2022-11-29T12:17:41.708Z,102472.41
2022-11-29T12:20:42.802Z,102472.28
2022-11-29T12:23:12.817Z,102471.25
2022-11-29T12:25:44.963Z,102478.97
2022-11-29T12:28:20.586Z,102473.75
2022-11-29T12:30:59.916Z,102473.63
2022-11-29T12:33:32.831Z,102475.25
2022-11-29T12:36:21.148Z,102475.41
2022-11-29T12:39:26.993Z,102473.72
2022-11-29T12:42:12.562Z,102478.84
2022-11-29T12:44:43.651Z,102480.50
2022-11-29T12:47:39.627Z,102466.81
2022-11-29T12:50:28.334Z,102483.94
2022-11-29T12:52:55.186Z,102484.00
2022-11-29T12:55:32.932Z,102484.81
2022-11-29T12:58:14.067Z,102472.78
2022-11-29T13:01:23.146Z,102475.28
2022-11-29T13:04:08.581Z,102485.50
2022-11-29T13:06:38.361Z,102483.72
2022-11-29T13:09:18.685Z,102478.63
2022-11-29T13:12:16.971Z,102464.94
2022-11-29T13:14:54.314Z,102475.16
2022-11-29T13:17:56.708Z,102473.41
2022-11-29T13:20:33.774Z,102466.56
2022-11-29T13:23:03.628Z,102473.09
2022-11-29T13:25:42.019Z,102483.16
2022-11-29T13:28:24.096Z,102472.94
2022-11-29T13:30:52.845Z,102468.63
2022-11-29T13:33:38.636Z,102470.22
2022-11-29T13:36:44.470Z,102474.09
2022-11-29T13:39:36.968Z,102475.81
2022-11-29T13:42:03.862Z,102477.59
2022-11-29T13:44:44.567Z,102470.91
2022-11-29T13:47:19.153Z,102482.75
2022-11-29T13:49:50.844Z,102482.78
2022-11-29T13:52:26.722Z,102479.28
2022-11-29T13:55:12.046Z,102486.06
2022-11-29T13:58:18.458Z,102481.75
2022-11-29T14:00:45.655Z,102478.31
2022-11-29T14:03:18.886Z,102485.03
2022-11-29T14:05:49.146Z,102466.84
2022-11-29T14:08:25.645Z,102477.31
2022-11-29T14:10:56.982Z,102481.38
2022-11-29T14:13:46.391Z,102479.00
2022-11-29T14:16:21.033Z,102477.25
2022-11-29T14:19:03.745Z,102475.59
2022-11-29T14:21:58.721Z,102492.50
2022-11-29T14:24:38.121Z,102491.59
2022-11-29T14:27:12.615Z,102483.84
2022-11-29T14:29:53.677Z,102482.94
2022-11-29T14:32:23.853Z,102485.63
2022-11-29T14:34:56.762Z,102483.88
2022-11-29T14:37:55.806Z,102481.41
2022-11-29T14:40:34.819Z,102478.84
2022-11-29T14:43:05.395Z,102487.31
2022-11-29T14:45:34.682Z,102480.38
2022-11-29T14:48:02.890Z,102457.13
2022-11-29T14:50:33.379Z,102476.94
2022-11-29T14:53:01.291Z,102482.94
2022-11-29T14:55:32.375Z,102484.69
2022-11-29T14:58:06.025Z,102483.75
2022-11-29T15:00:32.989Z,102488.78
2022-11-29T15:03:12.957Z,102489.50
2022-11-29T15:05:44.933Z,102490.13
2022-11-29T15:08:28.524Z,102495.19
2022-11-29T15:11:04.686Z,102501.84
2022-11-29T15:13:35.650Z,102495.88
2022-11-29T15:16:21.081Z,102505.19
2022-11-29T15:19:03.317Z,102498.25
2022-11-29T15:21:51.334Z,102496.53
2022-11-29T15:24:19.115Z,102486.22
2022-11-29T15:26:56.977Z,102498.88
2022-11-29T15:29:24.297Z,102487.00
2022-11-29T15:31:57.815Z,102493.97
2022-11-29T15:34:33.068Z,102501.69
2022-11-29T15:37:00.674Z,102490.66
2022-11-29T15:39:36.741Z,102495.66
2022-11-29T15:42:11.737Z,102489.56
2022-11-29T15:44:45.962Z,102480.94
2022-11-29T15:47:23.810Z,102484.47
2022-11-29T15:49:52.156Z,102490.38
2022-11-29T15:52:33.942Z,102467.22
2022-11-29T15:55:06.533Z,102491.13
2022-11-29T15:57:41.197Z,102483.41
2022-11-29T16:00:16.859Z,102472.38
2022-11-29T16:02:56.773Z,102480.06
2022-11-29T16:05:37.461Z,102478.13
2022-11-29T16:08:08.560Z,102469.53
2022-11-29T16:10:49.491Z,102482.25
2022-11-29T16:13:25.673Z,102489.97
2022-11-29T16:16:07.607Z,102496.66
2022-11-29T16:18:35.283Z,102499.94
2022-11-29T16:21:06.935Z,102497.41
2022-11-29T16:23:41.503Z,102503.41
2022-11-29T16:26:11.337Z,102508.16
2022-11-29T16:28:44.098Z,102510.75
2022-11-29T16:31:19.557Z,102486.84
2022-11-29T16:33:49.265Z,102502.22
2022-11-29T16:36:20.889Z,102500.63
2022-11-29T16:38:51.365Z,102493.00
2022-11-29T16:41:21.405Z,102489.66
2022-11-29T16:43:53.918Z,102483.53
2022-11-29T16:46:21.021Z,102485.38
2022-11-29T16:48:52.724Z,102486.91
2022-11-29T16:51:33.440Z,102486.97
2022-11-29T16:54:26.380Z,102492.97
2022-11-29T16:56:55.905Z,102489.53
2022-11-29T16:59:27.476Z,102501.59
2022-11-29T17:01:56.891Z,102493.13
2022-11-29T17:04:30.065Z,102493.13
2022-11-29T17:06:58.229Z,102486.28
2022-11-29T17:09:54.375Z,102495.72
2022-11-29T17:12:48.372Z,102490.63
2022-11-29T17:18:15.732Z,102488.13
2022-11-29T17:20:42.659Z,102482.97
2022-11-29T17:23:37.951Z,102482.25
2022-11-29T17:26:05.398Z,102478.03
2022-11-29T17:34:46.006Z,102482.31
2022-11-29T17:37:13.174Z,102489.09
2022-11-29T17:39:44.796Z,102489.09
2022-11-29T17:45:11.039Z,102496.00
2022-11-29T17:47:38.015Z,102488.34
2022-11-29T17:50:36.242Z,102486.50
2022-11-29T17:53:28.756Z,102495.03
2022-11-29T17:56:28.975Z,102497.59
2022-11-29T17:58:59.868Z,102493.28
2022-11-29T18:01:52.739Z,102491.56
2022-11-29T18:04:44.838Z,102494.09
2022-11-29T18:07:15.976Z,102506.09
2022-11-29T18:10:09.298Z,102504.41
2022-11-29T18:12:41.447Z,102498.41
2022-11-29T18:15:33.586Z,102503.56
2022-11-29T18:18:04.499Z,102510.38
2022-11-29T18:21:07.374Z,102483.84
2022-11-29T18:23:43.623Z,102500.19
2022-11-29T18:26:21.771Z,102495.91
2022-11-29T18:28:49.612Z,102494.22
2022-11-29T18:31:24.371Z,102491.69
2022-11-29T18:34:17.052Z,102491.56
2022-11-29T18:37:17.628Z,102503.59
2022-11-29T18:40:45.610Z,102505.25
2022-11-29T18:49:49.634Z,102504.38
2022-11-29T18:52:16.735Z,102509.47
2022-11-29T18:57:48.452Z,102499.22
2022-11-29T19:13:10.671Z,102482.25
2022-11-29T19:18:39.249Z,102485.50
2022-11-29T19:21:16.275Z,102493.34
2022-11-29T19:24:19.763Z,102495.03
2022-11-29T19:26:49.216Z,102478.75
2022-11-29T19:29:41.242Z,102500.94
2022-11-29T19:35:24.862Z,102493.25
2022-11-29T19:38:16.700Z,102494.09
2022-11-29T19:44:11.991Z,102506.78
2022-11-29T19:46:43.960Z,102490.41
2022-11-29T19:49:17.161Z,102505.84
2022-11-29T19:51:44.188Z,102507.59
2022-11-29T19:54:12.849Z,102512.69
2022-11-29T19:56:42.063Z,102498.13
2022-11-29T19:59:11.013Z,102507.53
2022-11-29T20:05:20.568Z,102512.69
2022-11-29T20:08:19.841Z,102503.31
2022-11-29T20:10:48.491Z,102500.69
2022-11-29T20:13:48.598Z,102514.34
2022-11-29T20:16:20.300Z,102503.25
2022-11-29T20:18:56.180Z,102501.59
2022-11-29T20:21:31.165Z,102502.44
2022-11-29T20:24:03.415Z,102502.38
2022-11-29T20:26:33.063Z,102503.22
2022-11-29T20:29:00.314Z,102499.78
2022-11-29T20:31:27.475Z,102515.13
2022-11-29T20:33:57.463Z,102514.28
2022-11-29T20:36:43.154Z,102509.97
2022-11-29T20:39:42.477Z,102515.09
2022-11-29T20:42:36.758Z,102510.84
2022-11-29T20:45:10.494Z,102500.56
2022-11-29T20:48:03.026Z,102498.94
2022-11-29T20:50:32.227Z,102494.59
2022-11-29T20:53:26.904Z,102504.03
2022-11-29T20:55:53.852Z,102498.03
2022-11-29T20:58:20.907Z,102503.97
2022-11-29T21:00:48.194Z,102509.94
2022-11-29T21:03:40.662Z,102505.66
2022-11-29T21:06:07.609Z,102499.69
2022-11-29T21:08:36.004Z,102507.31
2022-11-29T21:11:09.934Z,102503.97
2022-11-29T21:13:37.657Z,102503.09
2022-11-29T21:16:04.951Z,102498.75
2022-11-29T21:18:32.656Z,102504.72
2022-11-29T21:21:17.937Z,102505.53
2022-11-29T21:24:05.352Z,102497.88
2022-11-29T21:26:50.502Z,102505.53
2022-11-29T21:29:18.783Z,102508.94
2022-11-29T21:31:47.155Z,102501.06
2022-11-29T21:34:14.363Z,102493.41
2022-11-29T21:36:41.868Z,102490.91
2022-11-29T21:39:13.094Z,102513.31
2022-11-29T21:41:39.996Z,102516.72
2022-11-29T21:44:07.953Z,102496.13
2022-11-29T21:46:35.559Z,102515.00
2022-11-29T21:49:02.536Z,102509.97
2022-11-29T21:51:29.536Z,102515.94
2022-11-29T21:53:56.434Z,102515.09
2022-11-29T21:56:23.452Z,102517.63
2022-11-29T21:58:50.577Z,102518.50
2022-11-29T22:01:20.185Z,102519.38
2022-11-29T22:03:47.646Z,102526.16
2022-11-29T22:06:20.469Z,102514.31
2022-11-29T22:08:48.425Z,102527.81
2022-11-29T22:11:30.679Z,102514.22
2022-11-29T22:14:14.314Z,102527.88
2022-11-29T22:16:44.969Z,102512.47
2022-11-29T22:19:13.872Z,102529.63
2022-11-29T22:21:42.259Z,102534.69
2022-11-29T22:24:10.462Z,102517.59
2022-11-29T22:26:37.815Z,102524.53
2022-11-29T22:29:05.718Z,102528.72
2022-11-29T22:31:33.382Z,102496.16
2022-11-29T22:34:00.464Z,102522.72
2022-11-29T22:36:27.621Z,102520.94
2022-11-29T22:38:54.589Z,102523.44
2022-11-29T22:41:21.488Z,102518.34
2022-11-29T22:43:48.432Z,102517.50
2022-11-29T22:46:19.603Z,102520.88
2022-11-29T22:48:49.150Z,102520.00
2022-11-29T22:51:19.128Z,102510.53
2022-11-29T22:53:51.481Z,102521.72
2022-11-29T22:56:19.041Z,102527.66
2022-11-29T22:58:46.591Z,102516.69
2022-11-29T23:01:19.066Z,102526.91
2022-11-29T23:03:48.524Z,102537.66
2022-11-29T23:06:18.035Z,102524.25
2022-11-29T23:08:46.375Z,102525.97
2022-11-29T23:11:16.006Z,102534.47
2022-11-29T23:13:44.025Z,102527.66
2022-11-29T23:16:14.472Z,102525.97
2022-11-29T23:18:45.852Z,102530.22
2022-11-29T23:21:22.210Z,102529.38
2022-11-29T23:23:55.854Z,102528.50
2022-11-29T23:26:26.554Z,102528.50
2022-11-29T23:28:54.555Z,102531.03
2022-11-29T23:31:23.130Z,102531.00
2022-11-29T23:33:50.932Z,102527.63
2022-11-29T23:36:18.324Z,102532.69
2022-11-29T23:38:45.332Z,102530.97
2022-11-29T23:41:12.806Z,102526.78
2022-11-29T23:43:41.197Z,102518.19
2022-11-29T23:46:19.278Z,102524.19
2022-11-29T23:48:47.003Z,102519.03
2022-11-29T23:51:14.346Z,102517.31
2022-11-29T23:53:41.961Z,102514.75
2022-11-29T23:56:13.455Z,102524.16
2022-11-29T23:58:40.609Z,102495.06
